createdAt,value
2022-08-16T00:00:38.764Z,22.35
2022-08-16T00:05:35.063Z,22.31
2022-08-16T00:10:26.898Z,22.20
2022-08-16T00:15:21.558Z,22.24
2022-08-16T00:20:12.727Z,22.16
2022-08-16T00:25:05.240Z,22.17
2022-08-16T00:30:00.668Z,22.09
2022-08-16T00:34:53.262Z,22.04
2022-08-16T00:39:44.788Z,22.00
2022-08-16T00:44:38.170Z,21.93
2022-08-16T00:49:28.076Z,21.89
2022-08-16T00:54:17.859Z,21.78
2022-08-16T00:59:15.232Z,21.79
2022-08-16T01:04:30.340Z,21.72
2022-08-16T01:09:20.807Z,21.62
2022-08-16T01:14:20.375Z,21.60
2022-08-16T01:19:24.200Z,21.52
2022-08-16T01:24:52.646Z,21.50
2022-08-16T01:29:57.561Z,21.48
2022-08-16T01:34:53.736Z,21.43
2022-08-16T01:39:49.699Z,21.35
2022-08-16T01:44:40.603Z,21.31
2022-08-16T01:49:42.935Z,21.26
2022-08-16T01:54:45.367Z,21.21
2022-08-16T01:59:39.214Z,21.16
2022-08-16T02:04:48.710Z,21.02
2022-08-16T02:09:42.525Z,21.11
2022-08-16T02:14:50.983Z,21.06
2022-08-16T02:19:59.140Z,21.01
2022-08-16T02:24:50.939Z,21.01
2022-08-16T02:29:43.097Z,21.03
2022-08-16T02:34:40.989Z,21.02
2022-08-16T02:39:32.654Z,20.97
2022-08-16T02:44:23.779Z,20.93
2022-08-16T02:49:17.602Z,20.87
2022-08-16T02:54:16.907Z,20.83
2022-08-16T02:59:11.336Z,20.83
2022-08-16T03:04:41.329Z,20.78
2022-08-16T03:09:21.436Z,20.78
2022-08-16T03:14:21.388Z,20.73
2022-08-16T03:19:16.193Z,20.70
2022-08-16T03:24:28.675Z,20.69
2022-08-16T03:29:21.591Z,20.67
2022-08-16T03:34:13.738Z,20.65
2022-08-16T03:39:05.378Z,20.61
2022-08-16T03:44:07.235Z,20.54
2022-08-16T03:49:05.751Z,20.47
2022-08-16T03:54:01.503Z,20.40
2022-08-16T03:58:56.319Z,20.37
2022-08-16T04:03:53.010Z,19.89
2022-08-16T04:08:48.423Z,20.32
2022-08-16T04:14:01.433Z,20.25
2022-08-16T04:18:49.764Z,20.24
2022-08-16T04:23:40.012Z,20.25
2022-08-16T04:28:53.398Z,20.23
2022-08-16T04:33:50.873Z,20.20
2022-08-16T04:38:42.996Z,20.14
2022-08-16T04:43:38.590Z,20.03
2022-08-16T04:48:34.627Z,20.07
2022-08-16T04:53:31.265Z,20.07
2022-08-16T04:58:44.251Z,20.01
2022-08-16T05:03:33.649Z,20.08
2022-08-16T05:08:29.598Z,20.00
2022-08-16T05:13:40.557Z,20.14
2022-08-16T05:18:37.225Z,20.12
2022-08-16T05:23:31.710Z,20.12
2022-08-16T05:28:37.371Z,20.03
2022-08-16T05:33:29.140Z,20.04
2022-08-16T05:38:32.407Z,20.08
2022-08-16T05:43:43.564Z,20.04
2022-08-16T05:48:37.440Z,20.05
2022-08-16T05:53:38.680Z,20.00
2022-08-16T05:58:34.268Z,20.00
2022-08-16T06:03:29.568Z,19.99
2022-08-16T06:08:44.713Z,19.92
2022-08-16T06:13:37.898Z,19.88
2022-08-16T06:18:34.001Z,19.87
2022-08-16T06:23:24.208Z,19.92
2022-08-16T06:28:34.930Z,20.00
2022-08-16T06:33:26.167Z,20.05
2022-08-16T06:38:33.050Z,20.15
2022-08-16T06:43:31.881Z,20.22
2022-08-16T06:48:32.725Z,20.33
2022-08-16T06:53:24.545Z,20.41
2022-08-16T06:58:22.709Z,20.50
2022-08-16T07:03:55.525Z,20.52
2022-08-16T07:08:46.522Z,20.61
2022-08-16T07:14:03.578Z,20.68
2022-08-16T07:18:58.822Z,20.76
2022-08-16T07:23:57.983Z,20.81
2022-08-16T07:28:56.744Z,20.94
2022-08-16T07:33:52.447Z,21.04
2022-08-16T07:38:53.192Z,21.09
2022-08-16T07:43:44.136Z,21.17
2022-08-16T07:48:36.266Z,21.13
2022-08-16T07:53:28.932Z,21.25
2022-08-16T07:58:35.011Z,21.34
2022-08-16T08:03:38.761Z,21.44
2022-08-16T08:08:50.424Z,21.50
2022-08-16T08:13:44.156Z,21.68
2022-08-16T08:18:38.533Z,21.92
2022-08-16T08:23:29.365Z,22.26
2022-08-16T08:28:20.568Z,22.52
2022-08-16T08:33:15.206Z,22.69
2022-08-16T08:38:08.654Z,22.81
2022-08-16T08:43:11.708Z,22.89
2022-08-16T08:48:07.713Z,23.05
2022-08-16T08:53:02.948Z,23.13
2022-08-16T08:57:58.178Z,23.31
2022-08-16T09:03:17.218Z,23.59
2022-08-16T09:08:17.355Z,23.87
2022-08-16T09:13:14.527Z,24.20
2022-08-16T09:18:26.449Z,24.41
2022-08-16T09:23:20.246Z,24.50
2022-08-16T09:28:14.469Z,24.80
2022-08-16T09:33:37.384Z,25.02
2022-08-16T09:38:32.954Z,25.20
2022-08-16T09:43:53.315Z,25.33
2022-08-16T09:48:44.777Z,25.61
2022-08-16T09:53:45.067Z,25.84
2022-08-16T09:59:05.401Z,26.00
2022-08-16T10:04:04.550Z,26.37
2022-08-16T10:09:05.584Z,26.77
2022-08-16T10:13:59.533Z,27.13
2022-08-16T10:19:06.714Z,27.15
2022-08-16T10:24:00.473Z,27.05
2022-08-16T10:28:53.765Z,26.97
2022-08-16T10:33:45.352Z,26.86
2022-08-16T10:38:38.692Z,26.64
2022-08-16T10:43:31.840Z,26.50
2022-08-16T10:48:28.575Z,26.55
2022-08-16T10:53:21.593Z,26.92
2022-08-16T10:58:17.330Z,27.12
2022-08-16T11:08:23.566Z,27.25
2022-08-16T11:19:02.940Z,27.73
2022-08-16T11:23:59.879Z,27.88
2022-08-16T11:34:05.092Z,28.21
2022-08-16T11:39:00.524Z,28.24
2022-08-16T11:43:51.488Z,28.16
2022-08-16T11:48:42.355Z,27.96
2022-08-16T11:53:36.801Z,27.68
2022-08-16T11:58:28.513Z,27.34
2022-08-16T12:03:20.458Z,27.18
2022-08-16T12:08:27.266Z,26.99
2022-08-16T12:13:21.335Z,26.94
2022-08-16T12:18:13.604Z,26.86
2022-08-16T12:23:12.389Z,26.80
2022-08-16T12:28:04.788Z,26.72
2022-08-16T12:33:03.208Z,26.81
2022-08-16T12:37:56.605Z,26.94
2022-08-16T12:42:53.053Z,27.21
2022-08-16T12:48:29.502Z,27.40
2022-08-16T12:53:23.560Z,27.66
2022-08-16T12:58:49.276Z,27.88
2022-08-16T13:03:40.034Z,28.12
2022-08-16T13:08:36.531Z,28.17
2022-08-16T13:13:31.754Z,28.08
2022-08-16T13:18:34.119Z,28.14
2022-08-16T13:23:27.186Z,28.21
2022-08-16T13:28:24.145Z,28.30
2022-08-16T13:33:26.190Z,28.21
2022-08-16T13:38:27.455Z,28.16
2022-08-16T13:43:26.619Z,28.12
2022-08-16T13:48:21.796Z,28.06
2022-08-16T13:53:28.495Z,27.98
2022-08-16T13:58:36.516Z,27.97
2022-08-16T14:03:31.871Z,27.86
2022-08-16T14:08:27.252Z,27.75
2022-08-16T14:13:23.690Z,27.79
2022-08-16T14:18:17.093Z,27.92
2022-08-16T14:23:13.837Z,27.99
2022-08-16T14:28:04.687Z,28.04
2022-08-16T14:33:09.655Z,27.92
2022-08-16T14:38:06.105Z,27.83
2022-08-16T14:43:07.370Z,27.82
2022-08-16T14:48:01.429Z,27.84
2022-08-16T14:53:00.764Z,27.91
2022-08-16T14:57:54.872Z,28.03
2022-08-16T15:02:54.223Z,28.02
2022-08-16T15:07:46.123Z,28.05
2022-08-16T15:12:36.998Z,28.11
2022-08-16T15:17:33.960Z,28.20
2022-08-16T15:22:33.021Z,28.29
2022-08-16T15:27:27.644Z,28.47
2022-08-16T15:32:29.198Z,28.58
2022-08-16T15:37:25.332Z,28.73
2022-08-16T15:42:41.985Z,28.85
2022-08-16T15:47:38.183Z,28.90
2022-08-16T15:52:35.470Z,28.90
2022-08-16T15:57:41.189Z,28.80
2022-08-16T16:02:35.574Z,28.61
2022-08-16T16:07:30.339Z,28.51
2022-08-16T16:12:53.096Z,28.44
2022-08-16T16:22:46.825Z,28.22
2022-08-16T16:27:39.801Z,28.17
2022-08-16T16:32:37.864Z,28.11
2022-08-16T16:37:31.404Z,28.04
2022-08-16T16:42:30.079Z,28.06
2022-08-16T16:47:24.167Z,28.00
2022-08-16T16:52:43.346Z,27.98
2022-08-16T16:57:45.896Z,27.91
2022-08-16T17:02:41.406Z,27.82
2022-08-16T17:07:43.044Z,27.68
2022-08-16T17:12:47.232Z,27.69
2022-08-16T17:19:14.724Z,27.66
2022-08-16T17:22:54.555Z,27.63
2022-08-16T17:27:51.073Z,27.56
2022-08-16T17:32:48.677Z,27.44
2022-08-16T17:37:51.678Z,27.28
2022-08-16T17:42:48.264Z,27.17
2022-08-16T17:47:39.628Z,27.11
2022-08-16T17:52:31.932Z,27.04
2022-08-16T17:57:22.851Z,26.92
2022-08-16T18:02:43.550Z,26.77
2022-08-16T18:07:30.078Z,26.56
2022-08-16T18:12:44.326Z,26.45
2022-08-16T18:17:39.013Z,26.36
2022-08-16T18:22:33.899Z,26.33
2022-08-16T18:27:28.737Z,26.23
2022-08-16T18:32:26.099Z,26.16
2022-08-16T18:37:22.716Z,26.07
2022-08-16T18:42:21.271Z,25.98
2022-08-16T18:47:14.837Z,25.96
2022-08-16T18:52:09.350Z,25.90
2022-08-16T18:57:07.391Z,25.88
2022-08-16T19:02:04.557Z,25.76
2022-08-16T19:06:56.392Z,25.72
2022-08-16T19:11:47.482Z,25.62
2022-08-16T19:16:43.653Z,25.55
2022-08-16T19:21:34.480Z,25.48
2022-08-16T19:26:26.278Z,25.25
2022-08-16T19:31:19.033Z,25.19
2022-08-16T19:36:30.400Z,25.18
2022-08-16T19:41:24.781Z,25.13
2022-08-16T19:46:16.164Z,25.19
2022-08-16T19:51:08.940Z,25.11
2022-08-16T19:56:02.136Z,25.10
2022-08-16T20:00:56.882Z,24.98
2022-08-16T20:05:51.771Z,24.93
2022-08-16T20:10:45.525Z,24.93
2022-08-16T20:15:41.075Z,24.91
2022-08-16T20:20:32.688Z,24.84
2022-08-16T20:25:28.173Z,24.80
2022-08-16T20:30:20.634Z,24.72
2022-08-16T20:35:15.651Z,24.66
2022-08-16T20:40:29.587Z,24.58
2022-08-16T20:45:21.797Z,24.54
2022-08-16T20:50:20.572Z,24.57
2022-08-16T20:55:12.108Z,24.50
2022-08-16T21:00:07.501Z,24.48
2022-08-16T21:04:57.872Z,24.35
2022-08-16T21:09:53.122Z,24.30
2022-08-16T21:14:44.138Z,23.99
2022-08-16T21:19:35.613Z,24.20
2022-08-16T21:24:26.477Z,24.16
2022-08-16T21:29:19.430Z,24.18
2022-08-16T21:34:09.511Z,24.17
2022-08-16T21:38:59.265Z,24.17
2022-08-16T21:43:48.935Z,24.18
2022-08-16T21:48:41.235Z,24.18
2022-08-16T21:53:31.022Z,24.22
2022-08-16T21:58:20.789Z,24.19
2022-08-16T22:03:12.683Z,24.20
2022-08-16T22:08:05.547Z,24.16
2022-08-16T22:12:55.977Z,24.05
2022-08-16T22:17:45.769Z,24.04
2022-08-16T22:22:36.074Z,23.97
2022-08-16T22:27:28.491Z,24.03
2022-08-16T22:32:18.355Z,23.95
2022-08-16T22:37:08.244Z,23.96
2022-08-16T22:41:59.109Z,23.88
2022-08-16T22:46:51.938Z,23.91
2022-08-16T22:51:43.054Z,23.87
2022-08-16T22:56:32.696Z,23.80
2022-08-16T23:01:24.942Z,23.77
2022-08-16T23:06:17.525Z,23.67
2022-08-16T23:11:08.057Z,23.62
2022-08-16T23:16:02.196Z,23.66
2022-08-16T23:20:52.349Z,23.63
2022-08-16T23:25:51.680Z,23.63
2022-08-16T23:30:45.050Z,23.62
2022-08-16T23:35:45.378Z,23.54
2022-08-16T23:40:36.232Z,23.62
2022-08-16T23:45:30.484Z,23.61
2022-08-16T23:50:20.935Z,23.60
2022-08-16T23:55:11.766Z,23.59
